METAR Data
IDs: Format: Raw Decoded Include TAF

Data at: 0628 UTC 23 Feb 2019

KGZN 230600Z AUTO 14015KT M1/4SM FG OVC002 09/09 A2976 RMK AO2
KGZN 230540Z AUTO 13012G18KT M1/4SM FG OVC002 09/09 A2977 RMK AO2
KGZN 230520Z AUTO 14012KT 1/4SM FG OVC002 09/09 A2979 RMK AO2
KGZN 230500Z AUTO 13011G17KT 1/4SM FG OVC002 09/09 A2980 RMK AO2
KGZN 230440Z AUTO 13011G16KT 1/4SM FG OVC002 09/09 A2981 RMK AO2
KGZN 230420Z AUTO 13013KT 1/4SM FG OVC002 09/09 A2982 RMK AO2
KGZN 230400Z AUTO 13010G17KT M1/4SM FG OVC002 09/09 A2982 RMK AO2
KGZN 230340Z AUTO 13011G17KT M1/4SM FG OVC002 09/09 A2983 RMK AO2
KGZN 230320Z AUTO 12011KT 1/4SM FG OVC002 09/09 A2985 RMK AO2
KGZN 230300Z AUTO 12008KT 1/4SM FG OVC002 10/09 A2986 RMK AO2
KGZN 230240Z AUTO 12008KT 1/4SM FG OVC002 10/10 A2987 RMK AO2
KGZN 230220Z AUTO 13008KT 1/4SM FG OVC002 10/10 A2988 RMK AO2
KGZN 230200Z AUTO 12009KT 1/4SM FG OVC002 10/10 A2986 RMK AO2
KGZN 230140Z AUTO 13008KT 1/2SM BR OVC002 10/10 A2986 RMK AO2
KGZN 230120Z AUTO 13008KT 2 1/2SM BR OVC003 10/09 A2985 RMK AO2
KGZN 230100Z AUTO 12009KT 5SM BR OVC003 10/09 A2985 RMK AO2
KGZN 230040Z AUTO 12008KT 8SM OVC004 10/09 A2985 RMK AO2
KGZN 230020Z AUTO 11009KT 10SM BKN005 OVC018 11/10 A2985 RMK AO2
KGZN 230000Z AUTO 13008KT 9SM OVC005 10/10 A2985 RMK AO2
KGZN 222340Z AUTO 11009KT 10SM OVC005 11/10 A2985 RMK AO2
KGZN 222320Z AUTO 11010KT 10SM OVC006 11/10 A2986 RMK AO2
KGZN 222300Z AUTO 12010KT 10SM OVC006 11/10 A2986 RMK AO2
KGZN 222240Z AUTO 12009KT 10SM OVC006 11/10 A2986 RMK AO2
KGZN 222220Z AUTO 13010KT 10SM OVC005 11/10 A2987 RMK AO2
KGZN 222200Z AUTO 12009KT 10SM OVC006 11/10 A2987 RMK AO2
KGZN 222140Z AUTO 13007KT 10SM OVC005 11/10 A2988 RMK AO2
KGZN 222120Z AUTO 15008KT 8SM OVC005 11/10 A2988 RMK AO2
KGZN 222100Z AUTO 13008KT 4SM BR OVC005 10/09 A2989 RMK AO2
KGZN 222040Z AUTO 14006KT 5SM BR OVC005 10/09 A2990 RMK AO2
KGZN 222020Z AUTO 12008KT 10SM OVC005 10/09 A2990 RMK AO2
KGZN 222000Z AUTO 12008KT 10SM OVC005 10/09 A2991 RMK AO2
KGZN 221940Z AUTO 12008KT 10SM OVC004 10/09 A2992 RMK AO2
KGZN 221920Z AUTO 14007KT 10SM OVC003 10/09 A2992 RMK AO2
KGZN 221900Z AUTO 13006KT 6SM BR OVC003 09/09 A2993 RMK AO2
KGZN 221840Z AUTO 11008KT 6SM BR OVC003 09/09 A2995 RMK AO2
KGZN 221820Z AUTO 12009KT 5SM BR OVC003 09/09 A2995 RMK AO2
KGZN 221800Z AUTO 12010KT 2 1/2SM BR OVC003 09/09 A2996 RMK AO2
KGZN 221740Z AUTO 11010KT 2SM BR OVC003 08/08 A2997 RMK AO2
KGZN 221720Z AUTO 12011KT 1/2SM FG OVC002 08/08 A2998 RMK AO2
KGZN 221700Z AUTO 12009KT 1/4SM FG OVC003 08/08 A2998 RMK AO2
KGZN 221640Z AUTO 11008KT 3/4SM BR OVC003 08/08 A2998 RMK AO2
KGZN 221620Z AUTO 09005KT 1SM BR OVC003 08/08 A2997 RMK AO2
KGZN 221600Z AUTO 04005KT 1SM BR OVC003 08/08 A2998 RMK AO2
KGZN 221540Z AUTO 08005KT 1SM BR OVC003 08/07 A3000 RMK AO2
KGZN 221520Z AUTO 05006KT 1SM BR OVC003 07/07 A2999 RMK AO2
KGZN 221500Z AUTO 06007KT 1/2SM FG OVC002 07/07 A2998 RMK AO2
KGZN 221440Z AUTO 07005KT 1/2SM FG OVC002 07/07 A2999 RMK AO2
KGZN 221420Z AUTO 07006KT 1/2SM FG OVC002 07/07 A2998 RMK AO2
KGZN 221400Z AUTO 06004KT M1/4SM FG OVC002 07/07 A2998 RMK AO2
KGZN 221340Z AUTO 08003KT 1/4SM FG OVC002 07/07 A2997 RMK AO2
KGZN 221320Z AUTO 11005KT M1/4SM FG OVC002 07/07 A2998 RMK AO2
KGZN 221300Z AUTO 10005KT M1/4SM FG OVC002 07/07 A2998 RMK AO2
KGZN 221240Z AUTO 13005KT 1/4SM FG OVC002 07/07 A2997 RMK AO2
KGZN 221220Z AUTO 12005KT 1/4SM FG OVC002 07/07 A2996 RMK AO2
KGZN 221200Z AUTO 14006KT 1/2SM FG OVC002 07/07 A2997 RMK AO2
KGZN 221140Z AUTO 16007KT 1 1/4SM BR OVC003 07/07 A2995 RMK AO2
KGZN 221120Z AUTO 14005KT 4SM BR OVC003 07/07 A2993 RMK AO2
KGZN 221100Z AUTO 14006KT 4SM BR OVC003 07/07 A2993 RMK AO2
KGZN 221040Z AUTO 14005KT 4SM BR OVC003 07/07 A2992 RMK AO2
KGZN 221020Z AUTO 12008KT 4SM BR OVC003 07/06 A2990 RMK AO2
KGZN 221000Z AUTO 11008KT 4SM BR OVC003 07/06 A2989 RMK AO2
KGZN 220940Z AUTO 12011KT 4SM BR OVC003 07/06 A2989 RMK AO2
KGZN 220920Z AUTO 12011KT 4SM BR OVC003 07/06 A2990 RMK AO2
KGZN 220900Z AUTO 12010G16KT 4SM BR OVC004 07/06 A2990 RMK AO2
KGZN 220840Z AUTO 11008KT 6SM BR OVC004 07/06 A2991 RMK AO2
KGZN 220820Z AUTO 12011KT 9SM OVC006 07/06 A2993 RMK AO2
KGZN 220800Z AUTO 13012KT 10SM OVC007 07/05 A2993 RMK AO2
KGZN 220740Z AUTO 12009KT 10SM OVC008 07/05 A2993 RMK AO2
KGZN 220720Z AUTO 11008G15KT 10SM OVC009 07/05 A2993 RMK AO2
KGZN 220700Z AUTO 12009KT 10SM OVC010 07/05 A2994 RMK AO2
KGZN 220640Z AUTO 12009KT 10SM OVC011 07/05 A2994 RMK AO2
KGZN 220620Z AUTO 13007G13KT 10SM OVC012 08/05 A2996 RMK AO2
KGZN 220600Z AUTO 11007G13KT 10SM OVC012 08/04 A2995 RMK AO2
KGZN 220540Z AUTO 12008G14KT 10SM OVC013 08/04 A2995 RMK AO2
KGZN 220520Z AUTO 13011KT 10SM OVC015 08/04 A2996 RMK AO2
KGZN 220500Z AUTO 11012KT 10SM OVC018 08/04 A2995 RMK AO2
KGZN 220440Z AUTO 11009KT 10SM OVC018 07/03 A2994 RMK AO2
KGZN 220420Z AUTO 12007KT 10SM BKN018 BKN026 BKN035 07/04 A2995 RMK AO2
KGZN 220400Z AUTO 11005KT 10SM FEW026 SCT032 SCT040 07/03 A2995 RMK AO2
KGZN 220340Z AUTO 10006KT 10SM FEW037 07/03 A2995 RMK AO2
KGZN 220320Z AUTO 11008KT 10SM FEW036 FEW042 07/03 A2993 RMK AO2
KGZN 220300Z AUTO 12008KT 10SM CLR 07/03 A2993 RMK AO2
KGZN 220240Z AUTO 11008KT 10SM FEW039 08/03 A2993 RMK AO2
KGZN 220220Z AUTO 12010KT 10SM SCT039 08/03 A2992 RMK AO2
KGZN 220200Z AUTO 12010G15KT 10SM FEW041 08/03 A2993 RMK AO2
KGZN 220140Z AUTO 12012KT 10SM FEW043 08/02 A2992 RMK AO2
KGZN 220120Z AUTO 12012KT 10SM FEW046 09/02 A2992 RMK AO2
KGZN 220100Z AUTO 13011KT 10SM CLR 09/02 A2991 RMK AO2
KGZN 220040Z AUTO 12007G14KT 10SM CLR 09/01 A2990 RMK AO2
KGZN 220020Z AUTO 11009G15KT 10SM CLR 10/00 A2990 RMK AO2
KGZN 220000Z AUTO 10010KT 10SM CLR 10/01 A2990 RMK AO2
KGZN 212340Z AUTO 11007G13KT 10SM CLR 11/M00 A2990 RMK AO2
KGZN 212320Z AUTO 10009KT 10SM CLR 11/M00 A2989 RMK AO2
KGZN 212300Z AUTO 12012KT 10SM CLR 11/M00 A2989 RMK AO2
KGZN 212240Z AUTO 13011G17KT 10SM CLR 11/00 A2989 RMK AO2
KGZN 212220Z AUTO 13010G17KT 10SM CLR 11/00 A2988 RMK AO2
KGZN 212200Z AUTO 13013KT 10SM CLR 11/M00 A2988 RMK AO2
KGZN 212140Z AUTO 14010G18KT 10SM CLR 11/M00 A2989 RMK AO2
KGZN 212120Z AUTO 12016KT 10SM CLR 11/00 A2988 RMK AO2
KGZN 212100Z AUTO 13013KT 100V160 10SM CLR 11/M00 A2989 RMK AO2
KGZN 212040Z AUTO 11013KT 10SM CLR 11/M01 A2991 RMK AO2
KGZN 212020Z AUTO 13012KT 10SM CLR 11/M03 A2990 RMK AO2
KGZN 212000Z AUTO 14010G17KT 10SM CLR 12/M03 A2992 RMK AO2
KGZN 211940Z AUTO 13015G20KT 10SM CLR 12/M04 A2992 RMK AO2
KGZN 211920Z AUTO 14012G17KT 10SM SCT055 12/M01 A2993 RMK AO2
KGZN 211900Z AUTO 13012KT 10SM OVC055 11/M00 A2995 RMK AO2
KGZN 211840Z AUTO 13013KT 10SM BKN055 11/00 A2997 RMK AO2